Time;durP1;ratioP1;P1;durP2;ratioP2;P2;SDS_P1;SDS_P2;PMS_P1;PMS_P2;Temp;Humidity;BMP_temperature;BMP_pressure;BME280_temperature;BME280_humidity;BME280_pressure;Samples;Min_cycle;Max_cycle;Signal;HPM_P1;HPM_P2
2023/06/23 00:01:06;;;;;;;3.13;2.15;;;19.40;81.90;;;;;;4997714;28;20037;-61
2023/06/23 00:03:32;;;;;;;1.88;1.50;;;19.40;81.90;;;;;;4989047;28;20030;-60
2023/06/23 00:05:59;;;;;;;1.75;1.42;;;19.40;81.90;;;;;;4998667;28;20053;-60
2023/06/23 00:08:25;;;;;;;2.67;1.50;;;19.40;82.00;;;;;;4996831;28;20525;-64
2023/06/23 00:10:51;;;;;;;2.22;1.52;;;19.40;81.90;;;;;;4998211;28;20045;-64
2023/06/23 00:13:18;;;;;;;1.98;1.20;;;19.30;81.90;;;;;;4991700;28;20507;-64
2023/06/23 00:15:44;;;;;;;2.45;1.67;;;19.30;82.00;;;;;;4994794;28;20164;-64
2023/06/23 00:18:10;;;;;;;1.42;1.30;;;19.30;82.00;;;;;;4995014;28;20113;-64
2023/06/23 00:20:36;;;;;;;2.75;1.52;;;19.30;82.00;;;;;;4990415;28;20051;-64
2023/06/23 00:23:01;;;;;;;2.13;1.90;;;19.30;82.00;;;;;;4989944;28;20575;-64
2023/06/23 00:25:27;;;;;;;1.65;1.42;;;19.30;82.00;;;;;;4992393;28;20038;-64
2023/06/23 00:27:53;;;;;;;3.13;2.10;;;19.20;82.00;;;;;;4992199;28;20035;-64
2023/06/23 00:30:18;;;;;;;2.45;1.65;;;19.20;81.90;;;;;;4991944;28;20031;-64
2023/06/23 00:32:44;;;;;;;3.05;1.50;;;19.20;81.90;;;;;;4986659;28;20043;-64
2023/06/23 00:35:10;;;;;;;2.90;1.42;;;19.20;81.90;;;;;;4991063;28;20505;-64
2023/06/23 00:37:39;;;;;;;3.42;1.63;;;19.10;81.90;;;;;;4993386;28;20040;-64
2023/06/23 00:40:12;;;;;;;1.85;1.65;;;19.10;82.00;;;;;;4993786;28;20126;-64
2023/06/23 00:42:47;;;;;;;1.50;1.30;;;19.10;81.90;;;;;;4993744;28;20038;-60
2023/06/23 00:45:13;;;;;;;1.92;1.65;;;19.10;81.90;;;;;;4984472;28;20501;-60
2023/06/23 00:47:43;;;;;;;3.05;2.13;;;19.10;81.90;;;;;;4990395;28;20045;-60
2023/06/23 00:50:13;;;;;;;4.15;1.70;;;19.10;81.90;;;;;;4988436;28;20405;-61
2023/06/23 00:52:39;;;;;;;3.47;1.63;;;19.10;82.00;;;;;;4990230;28;20474;-61
2023/06/23 00:55:06;;;;;;;1.85;1.55;;;19.10;82.00;;;;;;4991656;28;20026;-60
2023/06/23 00:57:33;;;;;;;2.80;1.30;;;19.10;81.90;;;;;;5000212;28;20077;-60
2023/06/23 00:59:59;;;;;;;3.28;1.20;;;19.10;81.80;;;;;;5010648;28;20104;-61
2023/06/23 01:02:27;;;;;;;3.22;1.80;;;19.10;81.70;;;;;;5010743;28;20065;-60
2023/06/23 01:04:53;;;;;;;3.70;1.80;;;19.10;81.70;;;;;;5011152;28;20409;-60
2023/06/23 01:07:46;;;;;;;2.17;1.20;;;19.00;81.80;;;;;;5005278;28;20087;-60
2023/06/23 01:10:18;;;;;;;1.52;1.40;;;19.00;81.80;;;;;;5006335;28;20033;-61
2023/06/23 01:13:10;;;;;;;1.55;1.00;;;19.00;81.90;;;;;;5009963;28;20052;-60
2023/06/23 01:15:39;;;;;;;;;;;18.90;81.80;;;;;;5006112;28;20034;-60
2023/06/23 01:18:16;;;;;;;2.45;1.77;;;18.80;82.10;;;;;;5009321;28;20405;-60
2023/06/23 01:20:45;;;;;;;1.58;1.27;;;18.80;82.20;;;;;;5008209;28;20026;-61
2023/06/23 01:23:33;;;;;;;2.15;1.60;;;18.80;82.10;;;;;;5010359;28;20026;-60
2023/06/23 01:26:43;;;;;;;1.67;1.33;;;18.80;82.10;;;;;;5010307;28;20638;-60
2023/06/23 01:29:09;;;;;;;1.80;1.45;;;18.80;82.70;;;;;;4977472;28;20547;-60
2023/06/23 01:31:45;;;;;;;2.50;1.40;;;18.70;82.10;;;;;;5010291;28;20018;-60
2023/06/23 01:34:23;;;;;;;3.17;2.00;;;18.70;81.90;;;;;;5010533;28;20131;-60
2023/06/23 01:37:07;;;;;;;1.40;1.30;;;18.80;82.00;;;;;;5009557;28;20037;-60
2023/06/23 01:39:36;;;;;;;3.83;1.52;;;18.80;81.80;;;;;;5007327;28;20397;-61
2023/06/23 01:42:15;;;;;;;2.08;1.40;;;18.80;81.80;;;;;;5009800;28;20385;-60
2023/06/23 01:44:48;;;;;;;1.77;1.50;;;18.70;81.80;;;;;;5007096;28;20022;-60
2023/06/23 01:47:21;;;;;;;1.77;1.40;;;18.70;81.80;;;;;;5009471;28;20057;-60
2023/06/23 01:49:48;;;;;;;2.20;2.00;;;18.60;81.90;;;;;;5008908;28;20075;-60
2023/06/23 01:52:16;;;;;;;1.70;1.30;;;18.60;81.90;;;;;;5009346;28;20022;-60
2023/06/23 01:54:42;;;;;;;3.95;2.17;;;18.60;81.80;;;;;;5009667;28;20040;-60
2023/06/23 01:57:11;;;;;;;2.35;1.70;;;18.60;81.90;;;;;;5009696;28;20497;-60
2023/06/23 01:59:38;;;;;;;6.40;1.65;;;18.50;82.00;;;;;;5008001;28;20022;-60
2023/06/23 02:02:07;;;;;;;3.67;1.38;;;18.50;82.00;;;;;;5009661;28;20501;-60
2023/06/23 02:04:35;;;;;;;2.45;1.77;;;18.50;82.10;;;;;;5009394;28;20018;-61
2023/06/23 02:07:01;;;;;;;3.63;1.77;;;18.50;82.00;;;;;;5003837;28;20117;-60
2023/06/23 02:09:30;;;;;;;1.98;1.80;;;18.50;82.10;;;;;;5008192;28;20026;-60
2023/06/23 02:11:57;;;;;;;2.10;1.65;;;18.50;82.10;;;;;;5009039;28;20037;-60
2023/06/23 02:14:26;;;;;;;2.03;1.55;;;18.40;82.00;;;;;;4991994;28;20034;-60
2023/06/23 02:16:53;;;;;;;1.73;1.40;;;18.40;82.00;;;;;;5009336;28;20026;-60
2023/06/23 02:19:21;;;;;;;3.78;1.40;;;18.40;82.00;;;;;;5009909;28;20048;-60
2023/06/23 02:21:48;;;;;;;1.70;1.25;;;18.40;82.00;;;;;;5008199;28;20034;-61
2023/06/23 02:24:15;;;;;;;2.45;1.38;;;18.40;82.00;;;;;;5007555;28;20381;-60
2023/06/23 02:26:41;;;;;;;4.05;1.67;;;18.40;82.00;;;;;;5008077;28;20022;-60
2023/06/23 02:29:08;;;;;;;2.42;1.98;;;18.40;82.00;;;;;;5009725;28;20034;-61
2023/06/23 02:31:34;;;;;;;2.72;1.88;;;18.40;82.00;;;;;;5007969;28;20080;-62
2023/06/23 02:34:00;;;;;;;2.20;1.50;;;18.40;81.90;;;;;;5009950;28;20033;-61
2023/06/23 02:36:34;;;;;;;2.08;1.45;;;18.30;81.90;;;;;;5009032;28;20128;-62
2023/06/23 02:39:04;;;;;;;2.95;1.75;;;18.30;82.00;;;;;;5008190;28;20057;-62
2023/06/23 02:41:33;;;;;;;3.58;1.50;;;18.30;82.00;;;;;;5008619;28;20370;-62
2023/06/23 02:44:05;;;;;;;3.28;2.20;;;18.30;82.10;;;;;;5008089;28;20033;-62
2023/06/23 02:46:33;;;;;;;;;;;18.20;82.00;;;;;;5007204;28;20026;-62
2023/06/23 02:49:04;;;;;;;2.10;1.90;;;18.20;82.20;;;;;;5008918;28;19921;-66
2023/06/23 02:51:31;;;;;;;3.60;2.58;;;18.10;82.20;;;;;;5008788;28;20159;-66
2023/06/23 02:54:01;;;;;;;3.08;1.90;;;18.10;82.40;;;;;;5007964;28;20044;-66
2023/06/23 02:56:29;;;;;;;3.25;1.80;;;18.10;82.50;;;;;;5007680;28;20493;-66
2023/06/23 02:59:02;;;;;;;2.72;1.50;;;18.10;82.50;;;;;;5009378;28;20077;-67
2023/06/23 03:01:33;;;;;;;1.98;1.85;;;18.10;82.50;;;;;;5009030;28;20049;-66
2023/06/23 03:03:59;;;;;;;4.05;1.80;;;18.10;82.50;;;;;;5013526;28;20472;-66
2023/06/23 03:06:25;;;;;;;2.33;1.70;;;18.10;82.50;;;;;;5012512;28;20049;-66
2023/06/23 03:08:51;;;;;;;3.72;2.28;;;18.10;82.60;;;;;;5012696;28;20073;-66
2023/06/23 03:11:20;;;;;;;2.80;1.90;;;18.10;82.60;;;;;;5012306;28;20048;-66
2023/06/23 03:13:47;;;;;;;3.63;1.92;;;18.10;82.60;;;;;;5012882;28;20033;-67
2023/06/23 03:16:39;;;;;;;7.72;2.53;;;18.10;82.60;;;;;;5009721;28;20030;-66
2023/06/23 03:19:18;;;;;;;3.20;2.90;;;18.00;82.70;;;;;;5012599;28;20030;-66
2023/06/23 03:22:01;;;;;;;3.38;2.45;;;18.00;83.00;;;;;;5010935;28;20021;-66
2023/06/23 03:24:31;;;;;;;3.65;2.42;;;17.90;83.00;;;;;;5009905;28;20434;-62
2023/06/23 03:26:58;;;;;;;2.45;1.88;;;18.00;83.10;;;;;;5006678;28;20134;-62
2023/06/23 03:29:28;;;;;;;3.97;2.05;;;18.00;83.10;;;;;;5012586;28;20185;-66
2023/06/23 03:31:59;;;;;;;2.67;2.08;;;18.00;83.00;;;;;;5012538;28;20017;-66
2023/06/23 03:34:31;;;;;;;4.57;2.03;;;18.00;83.00;;;;;;5012641;28;20025;-66
2023/06/23 03:36:59;;;;;;;4.40;2.30;;;18.00;82.90;;;;;;5012699;28;20018;-66
2023/06/23 03:39:28;;;;;;;3.28;2.38;;;18.00;83.00;;;;;;5011267;28;20412;-66
2023/06/23 03:41:55;;;;;;;3.00;2.20;;;18.00;83.00;;;;;;5010927;28;20417;-66
2023/06/23 03:44:35;;;;;;;3.65;2.65;;;18.00;83.00;;;;;;5011767;28;20038;-66
2023/06/23 03:47:09;;;;;;;3.53;2.72;;;18.00;83.00;;;;;;5012858;28;20489;-66
2023/06/23 03:49:39;;;;;;;3.05;2.30;;;18.00;83.00;;;;;;5010671;28;20033;-66
2023/06/23 03:52:09;;;;;;;2.70;1.88;;;18.00;82.90;;;;;;5012441;28;20397;-66
2023/06/23 03:54:37;;;;;;;4.70;2.92;;;18.00;82.90;;;;;;5010926;28;20022;-67
2023/06/23 03:57:04;;;;;;;5.85;2.95;;;18.00;83.00;;;;;;5011500;28;20049;-66
2023/06/23 03:59:31;;;;;;;3.85;2.17;;;18.00;83.00;;;;;;5027973;28;20100;-66
2023/06/23 04:01:59;;;;;;;4.03;2.83;;;18.00;83.00;;;;;;5011893;28;20033;-66
2023/06/23 04:04:26;;;;;;;3.67;2.67;;;18.00;83.00;;;;;;5029364;28;20025;-62
2023/06/23 04:06:54;;;;;;;3.33;2.15;;;18.00;82.90;;;;;;5030609;28;20134;-62
2023/06/23 04:09:21;;;;;;;2.97;2.00;;;18.00;82.90;;;;;;5029458;28;20526;-63
2023/06/23 04:11:50;;;;;;;5.65;3.53;;;18.00;83.60;;;;;;5029631;28;20036;-62
2023/06/23 04:14:17;;;;;;;3.85;3.00;;;18.00;83.00;;;;;;5028532;28;20033;-62
2023/06/23 04:16:43;;;;;;;6.28;3.65;;;18.00;83.70;;;;;;5030770;28;20031;-62
2023/06/23 04:19:11;;;;;;;3.90;2.75;;;18.00;83.20;;;;;;5028055;28;20033;-62
2023/06/23 04:21:38;;;;;;;4.40;2.97;;;18.00;83.20;;;;;;5029734;28;20022;-62
2023/06/23 04:24:05;;;;;;;3.45;2.50;;;18.10;83.20;;;;;;5030028;28;20445;-63
2023/06/23 04:26:34;;;;;;;4.75;2.95;;;18.10;83.20;;;;;;5029820;28;20104;-62
2023/06/23 04:29:02;;;;;;;4.50;3.30;;;18.10;83.30;;;;;;5028601;28;20036;-66
2023/06/23 04:31:30;;;;;;;6.13;3.75;;;18.10;83.40;;;;;;5029336;28;20128;-66
2023/06/23 04:33:56;;;;;;;5.20;3.53;;;18.10;83.50;;;;;;5029726;28;20021;-66
2023/06/23 04:36:28;;;;;;;5.05;3.50;;;18.10;83.60;;;;;;5029725;28;20476;-66
2023/06/23 04:39:03;;;;;;;6.35;4.00;;;18.10;83.60;;;;;;5029413;28;20543;-66
2023/06/23 04:41:32;;;;;;;5.93;3.60;;;18.10;83.60;;;;;;5027629;28;20030;-66
2023/06/23 04:44:01;;;;;;;7.22;4.82;;;18.10;83.70;;;;;;5030015;28;20034;-66
2023/06/23 04:46:33;;;;;;;7.38;4.07;;;18.20;83.60;;;;;;5029973;28;20025;-66
2023/06/23 04:49:08;;;;;;;7.00;4.28;;;18.20;83.60;;;;;;5029737;28;20029;-62
2023/06/23 04:51:38;;;;;;;9.13;4.85;;;18.20;83.70;;;;;;5027789;28;20067;-62
2023/06/23 04:54:14;;;;;;;6.50;4.53;;;18.20;83.80;;;;;;5026621;28;20071;-62
2023/06/23 04:56:41;;;;;;;9.38;5.70;;;18.20;83.90;;;;;;5011386;28;20029;-62
2023/06/23 04:59:09;;;;;;;6.85;4.80;;;18.30;84.00;;;;;;5012176;28;20033;-62
2023/06/23 05:01:35;;;;;;;6.30;3.95;;;18.30;84.10;;;;;;5028444;28;20116;-62
2023/06/23 05:04:04;;;;;;;8.85;5.63;;;18.40;84.00;;;;;;5029515;28;20029;-62
2023/06/23 05:06:33;;;;;;;12.25;5.88;;;18.40;83.90;;;;;;5028272;28;20519;-62
2023/06/23 05:08:59;;;;;;;6.47;4.88;;;18.50;83.90;;;;;;5028567;28;20535;-62
2023/06/23 05:11:26;;;;;;;8.48;5.18;;;18.60;83.90;;;;;;5028473;28;20018;-62
2023/06/23 05:13:52;;;;;;;7.55;4.55;;;18.70;83.80;;;;;;5011037;28;20465;-65
2023/06/23 05:16:18;;;;;;;10.40;5.65;;;18.70;83.80;;;;;;5028415;28;20031;-65
2023/06/23 05:18:46;;;;;;;8.95;4.50;;;18.70;83.80;;;;;;4991259;28;20017;-66
2023/06/23 05:21:15;;;;;;;9.48;5.38;;;18.80;83.90;;;;;;5008706;28;20089;-66
2023/06/23 05:23:44;;;;;;;7.90;5.28;;;18.80;83.80;;;;;;5027667;28;20040;-66
2023/06/23 05:26:12;;;;;;;12.40;5.68;;;18.90;83.90;;;;;;5009747;28;20025;-66
2023/06/23 05:28:39;;;;;;;8.55;4.97;;;18.90;83.90;;;;;;5028722;28;20029;-66
2023/06/23 05:31:06;;;;;;;8.80;5.88;;;18.90;84.00;;;;;;5028624;28;20163;-65
2023/06/23 05:33:39;;;;;;;10.65;6.55;;;18.90;84.00;;;;;;5029140;28;20034;-66
2023/06/23 05:36:09;;;;;;;7.85;4.53;;;18.90;84.20;;;;;;5027850;28;20021;-66
2023/06/23 05:38:36;;;;;;;9.68;5.05;;;19.00;84.30;;;;;;5027081;28;20022;-62
2023/06/23 05:41:02;;;;;;;8.25;5.80;;;19.00;84.30;;;;;;5027707;28;20116;-61
2023/06/23 05:43:28;;;;;;;8.68;4.10;;;19.00;84.40;;;;;;5027517;28;20545;-66
2023/06/23 05:45:55;;;;;;;12.02;6.13;;;19.10;84.30;;;;;;5010565;28;20152;-66
2023/06/23 05:48:36;;;;;;;9.13;5.72;;;19.10;84.60;;;;;;5026143;28;20127;-62
2023/06/23 05:51:07;;;;;;;7.22;4.18;;;19.10;84.60;;;;;;5028265;28;20116;-61
2023/06/23 05:53:35;;;;;;;6.50;3.80;;;19.10;84.70;;;;;;5028219;28;20029;-64
2023/06/23 05:56:13;;;;;;;10.45;5.97;;;19.20;84.70;;;;;;5027432;28;20056;-61
2023/06/23 05:58:44;;;;;;;8.27;4.63;;;19.20;84.70;;;;;;5026315;28;20132;-59
2023/06/23 06:01:15;;;;;;;7.57;4.32;;;19.30;84.50;;;;;;5026824;28;20025;-60
2023/06/23 06:03:46;;;;;;;7.90;4.18;;;19.40;84.50;;;;;;5028362;28;20037;-60
2023/06/23 06:06:13;;;;;;;7.13;4.75;;;19.40;84.40;;;;;;5027332;28;20033;-61
2023/06/23 06:08:41;;;;;;;7.10;4.40;;;19.50;84.40;;;;;;5009182;28;20065;-60
2023/06/23 06:11:09;;;;;;;8.45;4.05;;;19.50;84.30;;;;;;5023676;28;20117;-58
2023/06/23 06:13:38;;;;;;;7.78;4.15;;;19.60;84.30;;;;;;5021140;28;20033;-59
2023/06/23 06:16:07;;;;;;;5.32;3.97;;;19.70;84.30;;;;;;5027039;28;20028;-58
2023/06/23 06:18:35;;;;;;;5.88;4.07;;;19.80;84.10;;;;;;5026602;28;20032;-58
2023/06/23 06:21:01;;;;;;;9.63;5.93;;;19.90;83.90;;;;;;5027433;28;20105;-58
2023/06/23 06:23:30;;;;;;;11.63;6.90;;;19.90;83.80;;;;;;5027909;28;20437;-69
2023/06/23 06:25:56;;;;;;;11.68;6.50;;;19.90;83.90;;;;;;5026736;28;20400;-68
2023/06/23 06:28:26;;;;;;;9.32;5.45;;;19.90;84.00;;;;;;5025914;28;20086;-68
2023/06/23 06:30:53;;;;;;;8.93;4.85;;;19.90;84.20;;;;;;5026740;28;20037;-68
2023/06/23 06:33:20;;;;;;;7.93;4.60;;;20.00;84.30;;;;;;5010010;28;20033;-68
2023/06/23 06:35:48;;;;;;;9.38;5.93;;;20.10;84.10;;;;;;5027117;28;20484;-57
2023/06/23 06:38:16;;;;;;;7.55;4.95;;;20.20;84.10;;;;;;5027447;28;20030;-58
2023/06/23 06:40:44;;;;;;;6.97;4.55;;;20.30;83.90;;;;;;5027479;28;20039;-57
2023/06/23 06:43:10;;;;;;;13.88;5.70;;;20.30;83.80;;;;;;5027660;28;20089;-58
2023/06/23 06:45:36;;;;;;;10.95;5.65;;;20.30;83.70;;;;;;5027301;28;20035;-58
2023/06/23 06:48:04;;;;;;;8.68;5.25;;;20.40;83.80;;;;;;5025410;28;20040;-58
2023/06/23 06:50:31;;;;;;;9.35;5.30;;;20.50;83.80;;;;;;5025674;28;20148;-58
2023/06/23 06:52:58;;;;;;;7.78;5.85;;;20.50;83.70;;;;;;5027474;28;20496;-58
2023/06/23 06:55:25;;;;;;;9.02;5.45;;;20.70;83.50;;;;;;5009278;28;20030;-58
2023/06/23 06:57:51;;;;;;;8.25;4.93;;;20.70;84.00;;;;;;5008126;28;20473;-57
2023/06/23 07:00:19;;;;;;;10.85;4.82;;;20.80;83.20;;;;;;5009032;28;20120;-57
2023/06/23 07:02:45;;;;;;;7.65;3.92;;;20.90;83.10;;;;;;5027291;28;20030;-57
2023/06/23 07:05:11;;;;;;;9.63;4.60;;;21.00;83.10;;;;;;5027586;28;20349;-58
2023/06/23 07:07:37;;;;;;;8.38;4.45;;;21.00;82.80;;;;;;5025981;28;20030;-60
2023/06/23 07:10:03;;;;;;;7.35;4.82;;;21.10;82.70;;;;;;5024858;28;20139;-60
2023/06/23 07:12:30;;;;;;;10.30;5.75;;;21.20;82.70;;;;;;5026015;28;20512;-60
2023/06/23 07:14:55;;;;;;;7.07;5.00;;;21.30;82.60;;;;;;5024363;28;20222;-60
2023/06/23 07:17:21;;;;;;;5.97;3.38;;;21.40;82.50;;;;;;5007571;28;20489;-60
2023/06/23 07:19:47;;;;;;;5.80;3.50;;;21.50;82.30;;;;;;5026460;28;20026;-60
2023/06/23 07:22:12;;;;;;;5.97;3.63;;;21.60;82.20;;;;;;5009249;28;20033;-61
2023/06/23 07:24:38;;;;;;;5.70;4.18;;;21.70;82.00;;;;;;5026881;28;20091;-60
2023/06/23 07:27:05;;;;;;;6.53;4.10;;;21.80;81.50;;;;;;5025357;28;20033;-61
2023/06/23 07:29:30;;;;;;;6.45;3.00;;;21.70;81.50;;;;;;5027206;28;20049;-60
2023/06/23 07:31:57;;;;;;;5.70;4.00;;;21.80;81.40;;;;;;5008366;28;20401;-66
2023/06/23 07:34:23;;;;;;;5.60;3.88;;;21.80;81.20;;;;;;5026332;28;20033;-61
2023/06/23 07:36:48;;;;;;;7.15;4.28;;;21.90;81.10;;;;;;5026632;28;20522;-65
2023/06/23 07:39:14;;;;;;;4.20;3.25;;;22.00;80.70;;;;;;5026141;28;20036;-65
2023/06/23 07:41:40;;;;;;;3.78;2.67;;;22.10;80.60;;;;;;5009525;28;20091;-65
2023/06/23 07:44:05;;;;;;;3.97;2.55;;;22.20;80.50;;;;;;5025815;28;20040;-65
2023/06/23 07:46:32;;;;;;;5.90;3.38;;;22.30;79.90;;;;;;5027431;28;20486;-66
2023/06/23 07:48:58;;;;;;;3.22;2.65;;;22.30;79.70;;;;;;5030445;28;20120;-65
2023/06/23 07:51:23;;;;;;;3.65;2.47;;;22.30;79.70;;;;;;5012299;28;20117;-65
2023/06/23 07:53:49;;;;;;;4.50;2.97;;;22.30;79.30;;;;;;5029615;28;20441;-65
2023/06/23 07:56:15;;;;;;;5.75;3.72;;;22.40;79.30;;;;;;5012719;28;20527;-65
2023/06/23 07:58:40;;;;;;;4.65;2.67;;;22.50;78.70;;;;;;5024025;28;20477;-65
2023/06/23 08:01:06;;;;;;;3.70;3.00;;;22.50;78.20;;;;;;5025324;28;20033;-61
2023/06/23 08:03:32;;;;;;;5.43;2.92;;;22.50;78.00;;;;;;5021451;28;20111;-61
2023/06/23 08:05:58;;;;;;;3.92;2.78;;;22.50;78.00;;;;;;5029959;28;20485;-61
2023/06/23 08:08:24;;;;;;;9.90;2.38;;;22.60;77.70;;;;;;5012891;28;20461;-65
2023/06/23 08:10:50;;;;;;;4.28;2.83;;;22.70;77.70;;;;;;5012130;28;20029;-61
2023/06/23 08:13:16;;;;;;;3.30;2.30;;;22.80;77.30;;;;;;5012995;28;20033;-61
2023/06/23 08:15:41;;;;;;;7.03;3.17;;;22.90;76.80;;;;;;5030824;28;20033;-65
2023/06/23 08:18:07;;;;;;;3.33;2.35;;;22.90;76.20;;;;;;5031162;28;20029;-65
2023/06/23 08:20:33;;;;;;;3.80;2.58;;;22.90;75.80;;;;;;5028880;28;20021;-61
2023/06/23 08:22:59;;;;;;;3.08;2.35;;;23.00;76.40;;;;;;5030223;28;20558;-60
2023/06/23 08:25:25;;;;;;;2.13;1.70;;;23.10;75.00;;;;;;5030968;28;20456;-65
2023/06/23 08:27:51;;;;;;;3.15;2.17;;;23.10;75.10;;;;;;5012424;28;20045;-65
2023/06/23 08:30:29;;;;;;;2.72;1.95;;;23.20;74.80;;;;;;5030346;28;20477;-65
2023/06/23 08:32:55;;;;;;;2.90;2.05;;;23.30;74.70;;;;;;5030872;28;20036;-65
2023/06/23 08:35:21;;;;;;;2.78;2.08;;;23.40;73.50;;;;;;4993163;28;20501;-61
2023/06/23 08:37:47;;;;;;;4.10;2.10;;;23.40;73.40;;;;;;5026320;28;20026;-61
2023/06/23 08:40:14;;;;;;;3.25;2.13;;;23.40;73.10;;;;;;5030487;28;20116;-65
2023/06/23 08:42:40;;;;;;;2.33;1.52;;;23.50;72.70;;;;;;5028297;28;20083;-65
2023/06/23 08:45:07;;;;;;;2.95;2.03;;;23.50;72.20;;;;;;5029580;28;20037;-65
2023/06/23 08:47:37;;;;;;;3.85;2.25;;;23.50;71.90;;;;;;5008919;28;20029;-65
2023/06/23 08:50:03;;;;;;;3.85;2.22;;;23.60;71.60;;;;;;5026706;28;20120;-65
2023/06/23 08:52:29;;;;;;;2.38;1.80;;;23.60;71.90;;;;;;5025296;28;20040;-65
2023/06/23 08:54:55;;;;;;;1.70;1.52;;;23.70;71.80;;;;;;4995314;28;20037;-65
2023/06/23 08:57:21;;;;;;;3.22;1.48;;;23.80;71.50;;;;;;5026628;28;20504;-65
2023/06/23 08:59:47;;;;;;;2.97;1.92;;;23.90;71.50;;;;;;5026433;28;20061;-64
2023/06/23 09:02:13;;;;;;;2.83;1.60;;;24.00;70.90;;;;;;5009875;28;20061;-68
2023/06/23 09:04:39;;;;;;;2.97;2.03;;;24.10;69.50;;;;;;5008021;28;20049;-67
2023/06/23 09:07:05;;;;;;;2.33;1.48;;;24.20;68.80;;;;;;5029922;28;20021;-65
2023/06/23 09:09:31;;;;;;;2.53;1.85;;;24.20;68.70;;;;;;5027453;28;20037;-65
2023/06/23 09:11:58;;;;;;;1.40;1.10;;;24.20;68.60;;;;;;5011086;28;20033;-65
2023/06/23 09:14:29;;;;;;;2.58;1.50;;;24.40;68.90;;;;;;5030856;28;20021;-65
2023/06/23 09:16:56;;;;;;;3.92;1.50;;;24.50;68.50;;;;;;5012439;28;20030;-65
2023/06/23 09:19:23;;;;;;;3.30;1.30;;;24.60;68.40;;;;;;5030134;28;20400;-65
2023/06/23 09:21:49;;;;;;;2.38;1.00;;;24.70;67.50;;;;;;5029351;28;20035;-65
2023/06/23 09:24:16;;;;;;;2.55;1.17;;;24.70;66.90;;;;;;5030168;28;20033;-65
2023/06/23 09:26:52;;;;;;;1.00;0.73;;;24.80;65.20;;;;;;5029996;28;20475;-65
2023/06/23 09:29:22;;;;;;;1.92;1.42;;;24.80;64.80;;;;;;5011888;28;20033;-61
2023/06/23 09:31:50;;;;;;;2.95;1.38;;;24.90;64.80;;;;;;5012484;28;20342;-61
2023/06/23 09:34:30;;;;;;;1.17;1.02;;;25.00;64.20;;;;;;5024143;28;20060;-61
2023/06/23 09:37:13;;;;;;;2.20;1.40;;;25.10;62.90;;;;;;5012247;28;20091;-61
2023/06/23 09:39:41;;;;;;;2.47;1.42;;;25.10;63.50;;;;;;5029503;28;20075;-61
2023/06/23 09:42:11;;;;;;;2.42;1.55;;;25.20;63.90;;;;;;5010833;28;20029;-61
2023/06/23 09:44:40;;;;;;;1.95;1.02;;;25.30;63.30;;;;;;5030255;28;20033;-61
2023/06/23 09:47:06;;;;;;;1.88;1.30;;;25.50;63.70;;;;;;5029400;28;20021;-64
2023/06/23 09:49:39;;;;;;;1.67;1.20;;;25.60;63.30;;;;;;5029787;28;20041;-65
2023/06/23 09:52:07;;;;;;;1.55;1.23;;;25.60;62.30;;;;;;5029825;28;20037;-64
2023/06/23 09:54:39;;;;;;;1.65;1.48;;;25.70;62.60;;;;;;5024522;28;20044;-65
2023/06/23 09:57:13;;;;;;;6.78;1.25;;;25.80;62.60;;;;;;5029289;28;20053;-65
2023/06/23 09:59:44;;;;;;;1.25;1.15;;;25.90;62.00;;;;;;5028679;28;20025;-64
2023/06/23 10:02:25;;;;;;;2.67;1.15;;;25.90;62.00;;;;;;5025768;28;20106;-65
2023/06/23 10:04:58;;;;;;;1.55;1.10;;;26.00;61.50;;;;;;5008256;28;20065;-61
2023/06/23 10:07:26;;;;;;;2.10;1.90;;;26.10;61.60;;;;;;5024771;28;20037;-62
2023/06/23 10:09:54;;;;;;;1.55;1.25;;;26.10;61.60;;;;;;5024323;28;20488;-62
2023/06/23 10:12:25;;;;;;;2.33;1.38;;;26.30;61.50;;;;;;5026254;28;20357;-62
2023/06/23 10:14:51;;;;;;;1.40;1.10;;;26.40;60.60;;;;;;5011216;28;20080;-62
2023/06/23 10:17:17;;;;;;;2.83;1.15;;;26.50;60.70;;;;;;5026916;28;20056;-62
2023/06/23 10:19:48;;;;;;;2.22;1.38;;;26.60;59.50;;;;;;5008239;28;20029;-61
2023/06/23 10:22:15;;;;;;;1.48;1.00;;;26.60;59.50;;;;;;5022124;28;20110;-61
2023/06/23 10:24:45;;;;;;;1.08;1.00;;;26.70;58.50;;;;;;5027182;28;20049;-61
2023/06/23 10:27:16;;;;;;;1.95;1.23;;;26.70;58.60;;;;;;5012383;28;20037;-62
2023/06/23 10:29:47;;;;;;;1.17;1.08;;;26.80;57.20;;;;;;5026013;28;20120;-62
2023/06/23 10:32:15;;;;;;;1.13;1.02;;;26.80;56.90;;;;;;5035149;28;20052;-62
2023/06/23 10:34:43;;;;;;;1.33;1.23;;;26.90;56.30;;;;;;5030793;28;20527;-62
2023/06/23 10:37:14;;;;;;;0.93;0.82;;;27.00;56.70;;;;;;5029880;28;20428;-62
2023/06/23 10:39:47;;;;;;;1.35;0.95;;;27.00;56.20;;;;;;5026858;28;20048;-62
2023/06/23 10:42:15;;;;;;;1.25;1.08;;;27.10;54.70;;;;;;5027358;28;20036;-62
2023/06/23 10:44:42;;;;;;;0.98;0.98;;;27.10;54.70;;;;;;5030117;28;20048;-62
2023/06/23 10:47:09;;;;;;;1.83;1.30;;;27.20;55.00;;;;;;5010556;28;20386;-62
2023/06/23 10:49:36;;;;;;;1.27;1.08;;;27.40;55.00;;;;;;5027937;28;21564;-62
2023/06/23 10:52:03;;;;;;;2.15;1.63;;;27.50;55.10;;;;;;5026343;28;20021;-62
2023/06/23 10:54:30;;;;;;;1.83;1.20;;;27.40;54.40;;;;;;5026994;28;20098;-65
2023/06/23 10:56:56;;;;;;;2.80;1.60;;;27.40;54.00;;;;;;5025614;28;20095;-65
2023/06/23 10:59:29;;;;;;;2.05;1.08;;;27.40;53.90;;;;;;5024517;28;20040;-65
2023/06/23 11:02:01;;;;;;;2.90;0.93;;;27.50;53.20;;;;;;5022565;28;20534;-65
2023/06/23 11:04:28;;;;;;;;;;;27.60;52.90;;;;;;5027439;28;20176;-65
2023/06/23 11:07:05;;;;;;;1.40;1.30;;;27.80;52.20;;;;;;5025827;28;19909;-65
2023/06/23 11:09:47;;;;;;;1.58;1.30;;;27.90;52.40;;;;;;5022898;28;20034;-65
2023/06/23 11:12:43;;;;;;;3.25;2.22;;;28.10;52.10;;;;;;5026748;28;20084;-65
2023/06/23 11:15:08;;;;;;;2.28;1.25;;;28.10;52.10;;;;;;4998506;28;20313;-65
2023/06/23 11:18:05;;;;;;;1.33;1.15;;;28.20;52.30;;;;;;5019937;28;21156;-65
2023/06/23 11:20:38;;;;;;;1.33;1.23;;;28.30;51.90;;;;;;5025883;28;20053;-65
2023/06/23 11:23:05;;;;;;;1.35;1.13;;;28.30;50.50;;;;;;5009209;28;20017;-63
2023/06/23 11:25:32;;;;;;;1.08;0.93;;;28.30;50.90;;;;;;5011190;28;20030;-62
2023/06/23 11:28:35;;;;;;;1.45;1.05;;;28.30;50.60;;;;;;5032831;28;20028;-62
2023/06/23 11:31:14;;;;;;;0.93;0.93;;;28.40;50.80;;;;;;5030255;28;20033;-63
2023/06/23 11:33:40;;;;;;;1.10;1.00;;;28.70;50.90;;;;;;5032922;28;20026;-62
2023/06/23 11:36:07;;;;;;;1.27;1.17;;;28.90;50.40;;;;;;5013717;28;20040;-63
2023/06/23 11:38:34;;;;;;;0.85;0.80;;;28.90;50.00;;;;;;5029827;28;20034;-63
2023/06/23 11:41:01;;;;;;;2.63;1.05;;;29.00;50.00;;;;;;5032304;28;20033;-62
2023/06/23 11:43:42;;;;;;;1.35;0.95;;;29.10;49.10;;;;;;5030138;28;20084;-62
2023/06/23 11:46:12;;;;;;;0.85;0.82;;;29.10;49.00;;;;;;5033569;28;20039;-62
2023/06/23 11:48:39;;;;;;;1.50;0.93;;;29.10;47.60;;;;;;5029125;28;20483;-63
2023/06/23 11:51:07;;;;;;;1.25;0.75;;;29.10;48.20;;;;;;5022331;28;20029;-63
2023/06/23 11:53:34;;;;;;;2.30;1.27;;;29.10;48.10;;;;;;5011849;28;20037;-63
2023/06/23 11:56:00;;;;;;;0.80;0.80;;;29.00;48.10;;;;;;5012964;28;20037;-62
2023/06/23 11:58:30;;;;;;;1.75;1.50;;;29.20;49.50;;;;;;5018148;28;20053;-63
2023/06/23 12:00:56;;;;;;;1.13;0.68;;;29.40;48.50;;;;;;5028044;28;20120;-63
2023/06/23 12:03:22;;;;;;;1.27;0.90;;;29.60;48.40;;;;;;5014595;28;20037;-63
2023/06/23 12:05:47;;;;;;;0.80;0.80;;;29.50;48.10;;;;;;5031981;28;20546;-63
2023/06/23 12:08:13;;;;;;;1.40;1.20;;;29.40;47.10;;;;;;5031465;28;20068;-63
2023/06/23 12:10:42;;;;;;;0.88;0.73;;;29.30;46.60;;;;;;5031139;28;20029;-62
2023/06/23 12:13:09;;;;;;;2.00;1.15;;;29.30;47.40;;;;;;5028499;28;20072;-63
2023/06/23 12:15:42;;;;;;;1.67;0.85;;;29.50;47.50;;;;;;5014588;28;20035;-63
2023/06/23 12:18:09;;;;;;;1.20;1.10;;;29.50;47.60;;;;;;5029726;28;20425;-63
2023/06/23 12:20:40;;;;;;;0.80;0.80;;;29.70;48.00;;;;;;5011100;28;20037;-63
2023/06/23 12:23:09;;;;;;;;;;;29.90;47.40;;;;;;5031647;28;20048;-62
2023/06/23 12:25:43;;;;;;;1.77;1.52;;;30.10;45.20;;;;;;5028271;28;20314;-63
2023/06/23 12:28:16;;;;;;;3.40;1.35;;;29.90;45.60;;;;;;5031024;28;20503;-66
2023/06/23 12:30:43;;;;;;;1.35;1.23;;;29.80;45.10;;;;;;5030639;28;20456;-65
2023/06/23 12:33:22;;;;;;;1.23;0.82;;;29.80;44.60;;;;;;5031551;28;20113;-66
2023/06/23 12:36:14;;;;;;;1.02;0.82;;;29.80;45.30;;;;;;5030681;28;20029;-66
2023/06/23 12:38:40;;;;;;;2.75;1.23;;;30.00;43.80;;;;;;5025311;28;20029;-65
2023/06/23 12:41:19;;;;;;;1.15;0.93;;;30.10;44.30;;;;;;5030782;28;20112;-63
2023/06/23 12:43:47;;;;;;;1.00;0.82;;;30.30;44.20;;;;;;5031310;28;20033;-63
2023/06/23 12:46:17;;;;;;;0.82;0.82;;;30.40;44.20;;;;;;5031407;28;20042;-63
2023/06/23 12:48:44;;;;;;;1.00;0.80;;;30.50;43.90;;;;;;5012805;28;20698;-66
2023/06/23 12:51:10;;;;;;;1.20;1.00;;;30.60;43.80;;;;;;5031270;28;20416;-66
2023/06/23 12:53:36;;;;;;;0.85;0.85;;;30.70;44.10;;;;;;5012914;28;20091;-66
2023/06/23 12:56:03;;;;;;;0.80;0.70;;;30.80;44.10;;;;;;5031726;28;20030;-66
2023/06/23 12:58:29;;;;;;;2.15;0.93;;;30.90;44.10;;;;;;5009979;28;20053;-66